X  Sluiten METAR luchtvaart weer gegevens      EHVK Volkel Air Base
Temperatuur
-1°C Temperatuur
-2°C Dauwpunt
93% Vochtigheid



Wind
8 KM/U
5 MPH
2 M/S
4 KTS



80°
Oosten
Huidig weer

Geheel bewolkt Geheel bewolkt
Luchtdruk 1000.92 (hPa) - 29.56 (inHg)
Zicht 6.2 (mijl) - 10 (km)
Vliegveld
Vliegveld code EHVK

Locatie : Volkel Air Base
Afstand: 28 (km)

Metar:
EHVK 052225Z AUTO 08004KT 9999 OVC230 M01/M02 Q1001 BLU

Tijd: 05-12-2020 23:25 CET